Tucumcari ASC

2020-08-10 12:55:00

  • imperial
Date Time Air Temperature Relative Humidity Dewpoint Windchill Heat Index Wind Speed Wind Dir. Rain Solar Radiation Soil Temperature
2m 2m 3m 3m 10cm
US/Mountain F % F F F MPH deg in MJ/m^2 F
max avg avg
2020-08-09 13:05:00 97.4 15.9 43.5 97.4 97.4 5.8 7.8 5.5 220.1 181.9 0.00 0.2973273 101.3
2020-08-09 13:10:00 98.2 15.7 43.9 98.2 98.2 4.9 7.4 5.2 189.3 186.8 0.00 0.2974105 101.6
2020-08-09 13:15:00 97.2 16.4 44.1 97.2 97.2 4.7 5.5 3.7 185.8 235.2 0.00 0.2971406 101.9
2020-08-09 13:20:00 98.0 16.2 44.4 98.0 98.0 3.3 5.5 3.2 311.6 214.0 0.00 0.2959158 102.1
2020-08-09 13:25:00 98.1 15.3 43.1 98.1 98.1 6.2 9.2 5.3 173.2 128.5 0.00 0.2954791 102.4
2020-08-09 13:30:00 97.6 15.4 42.9 97.6 97.6 3.5 6.7 4.7 58.2 124.5 0.00 0.2945871 102.6
2020-08-09 13:35:00 98.6 15.2 43.4 98.6 98.6 3.0 9.0 3.8 147.4 50.7 0.00 0.2942008 102.9
2020-08-09 13:40:00 98.4 14.6 42.0 98.4 98.4 7.2 9.6 5.7 171.0 165.8 0.00 0.2931777 103.1
2020-08-09 13:45:00 98.1 13.9 40.6 98.1 98.1 4.4 7.8 4.5 177.8 174.1 0.00 0.2918740 103.4
2020-08-09 13:50:00 99.3 13.9 41.6 99.3 99.3 8.1 8.1 3.4 199.0 194.4 0.00 0.2910991 103.6
2020-08-09 13:55:00 99.1 13.5 40.6 99.1 99.1 4.4 7.8 5.4 261.2 311.4 0.00 0.2888717 103.7
2020-08-09 14:00:00 98.3 14.2 41.3 98.3 98.3 3.1 7.6 3.6 31.1 331.7 0.00 0.2875209 104.0
2020-08-09 14:05:00 99.7 13.9 41.9 99.7 99.7 3.0 4.6 2.4 288.2 359.0 0.00 0.2870798 104.2
2020-08-09 14:10:00 100.4 14.6 43.7 100.4 100.4 9.2 9.2 4.6 99.0 106.1 0.00 0.2853986 104.3
2020-08-09 14:15:00 98.3 16.1 44.5 98.3 98.3 5.6 11.0 6.6 110.9 117.0 0.00 0.2820666 104.6
2020-08-09 14:20:00 98.1 16.1 44.4 98.1 98.1 8.8 12.4 7.3 60.4 71.1 0.00 0.2803238 104.7
2020-08-09 14:25:00 99.0 15.7 44.5 99.0 99.0 3.7 11.9 5.1 45.0 60.0 0.00 0.2781546 104.9
2020-08-09 14:30:00 99.6 16.1 45.6 99.6 99.6 6.2 8.8 4.3 106.1 62.6 0.00 0.2767414 105.1
2020-08-09 14:35:00 99.2 15.6 44.6 99.2 99.2 5.1 10.1 7.0 76.7 105.4 0.00 0.2740929 105.2
2020-08-09 14:40:00 98.4 16.1 44.6 98.4 98.4 4.2 11.9 7.4 34.1 92.8 0.00 0.2632051 105.3
2020-08-09 14:45:00 98.9 15.5 44.1 98.9 98.9 1.5 7.6 3.9 50.7 34.9 0.00 0.2455124 105.4
2020-08-09 14:50:00 99.9 15.1 44.2 99.9 99.9 5.3 8.7 5.1 192.4 119.2 0.00 0.2684440 105.5
2020-08-09 14:55:00 99.3 15.1 43.8 99.3 99.3 7.6 9.6 6.5 89.8 154.2 0.00 0.2714351 105.6
2020-08-09 15:00:00 99.6 14.9 43.6 99.6 99.6 4.4 8.3 4.5 4.9 54.1 0.00 0.2665953 105.7
2020-08-09 15:05:00 100.3 14.5 43.4 100.3 100.3 9.4 9.7 6.6 140.2 114.4 0.00 0.2655344 105.8
2020-08-09 15:10:00 100.1 14.4 43.1 100.1 100.1 9.9 11.3 9.1 139.5 154.6 0.00 0.2634712 105.9
2020-08-09 15:15:00 100.1 14.0 42.5 100.1 100.1 7.2 12.2 9.1 164.1 164.9 0.00 0.2597243 105.9
2020-08-09 15:20:00 99.5 14.3 42.5 99.5 99.5 9.2 12.6 9.5 166.9 155.7 0.00 0.2579177 106.0
2020-08-09 15:25:00 99.4 14.1 42.0 99.4 99.4 7.1 10.6 6.7 166.5 155.7 0.00 0.2210352 106.0
2020-08-09 15:30:00 99.8 14.1 42.2 99.8 99.8 5.1 10.8 7.2 82.7 98.8 0.00 0.2540701 106.1
2020-08-09 15:35:00 99.8 14.1 42.4 99.8 99.8 6.2 8.7 5.2 83.1 75.6 0.00 0.2240091 106.1
2020-08-09 15:40:00 98.7 14.1 41.6 98.7 98.7 8.7 12.2 7.3 16.1 82.9 0.00 0.0654713 106.1
2020-08-09 15:45:00 98.1 14.4 41.5 98.1 98.1 5.6 10.3 7.0 164.4 120.0 0.00 0.0465168 106.1
2020-08-09 15:50:00 98.0 14.1 40.9 98.0 98.0 6.2 9.9 6.1 134.3 174.5 0.00 0.0598088 106.0
2020-08-09 15:55:00 98.9 13.8 41.0 98.9 98.9 1.3 5.6 3.3 206.9 133.8 0.00 0.1331845 105.9
2020-08-09 16:00:00 99.0 13.8 41.1 99.0 99.0 3.5 5.1 2.9 176.5 180.4 0.00 0.0725995 105.7
2020-08-09 16:05:00 98.7 13.6 40.5 98.7 98.7 8.8 11.0 6.9 212.7 227.3 0.00 0.0562893 105.6
2020-08-09 16:10:00 98.4 13.7 40.5 98.4 98.4 5.8 12.2 7.8 262.4 219.0 0.00 0.0522861 105.4
2020-08-09 16:15:00 98.1 15.0 42.5 98.1 98.1 12.6 12.6 8.5 166.6 195.0 0.00 0.0958500 105.2
2020-08-09 16:20:00 100.2 14.5 43.3 100.2 100.2 14.9 16.7 10.5 217.0 172.7 0.00 0.2524364 104.9
2020-08-09 16:25:00 99.2 14.4 42.3 99.2 99.2 11.7 19.6 15.5 204.0 195.3 0.00 0.2461479 104.7
2020-08-09 16:30:00 99.1 14.0 41.6 99.1 99.1 13.5 16.4 12.8 192.3 196.1 0.00 0.2329414 104.5
2020-08-09 16:35:00 98.9 13.7 40.8 98.9 98.9 11.2 14.6 11.3 159.3 186.5 0.00 0.1986673 104.3
2020-08-09 16:40:00 99.6 13.9 41.8 99.6 99.6 11.5 12.8 10.2 187.5 176.9 0.00 0.1349338 104.1
2020-08-09 16:45:00 97.6 16.3 44.3 97.6 97.6 19.6 21.0 15.9 193.2 182.2 0.00 0.1667763 103.9
2020-08-09 16:50:00 95.7 17.8 45.1 95.7 95.7 17.4 23.7 16.8 164.5 178.3 0.00 0.1313519 103.7
2020-08-09 16:55:00 95.6 17.8 45.0 95.6 95.6 13.9 21.5 17.7 208.7 176.1 0.00 0.1712262 103.6
2020-08-09 17:00:00 96.2 18.0 45.8 96.2 96.2 13.3 22.8 16.2 193.4 180.1 0.00 0.1939957 103.4
2020-08-09 17:05:00 94.3 20.3 47.5 94.3 94.3 16.0 22.6 15.6 186.6 183.2 0.00 0.1198941 103.3
2020-08-09 17:10:00 94.8 19.4 46.7 94.8 94.8 16.9 23.3 14.7 208.3 185.3 0.00 0.1688311 103.1
2020-08-09 17:15:00 95.5 18.4 45.8 95.5 95.5 13.7 16.5 13.5 201.0 191.0 0.00 0.1711413 102.9
2020-08-09 17:20:00 94.9 19.8 47.3 94.9 94.9 13.0 16.4 13.9 180.2 199.4 0.00 0.1677785 102.8
2020-08-09 17:25:00 96.3 18.1 46.1 96.3 96.3 7.1 14.4 10.9 195.2 198.1 0.00 0.1584823 102.7
2020-08-09 17:30:00 95.7 18.0 45.5 95.7 95.7 11.7 15.5 12.0 176.2 192.3 0.00 0.1538506 102.5
2020-08-09 17:35:00 96.7 16.3 43.6 96.7 96.7 15.5 15.5 11.9 253.8 209.9 0.00 0.1183505 102.4
2020-08-09 17:40:00 95.6 16.3 42.7 95.6 95.6 11.9 18.3 14.2 207.7 229.8 0.00 0.0591299 102.3
2020-08-09 17:45:00 95.4 15.9 42.0 95.4 95.4 13.0 18.0 13.4 240.0 233.8 0.00 0.0528172 102.1
2020-08-09 17:50:00 94.6 15.7 41.0 94.6 94.6 15.6 19.4 15.8 256.9 248.2 0.00 0.0388695 102.0
2020-08-09 17:55:00 94.7 16.0 41.5 94.7 94.7 13.0 16.7 13.3 241.6 244.8 0.00 0.0584462 101.8
2020-08-09 18:00:00 94.8 15.9 41.5 94.8 94.8 15.5 16.2 12.9 255.8 259.5 0.00 0.0613594 101.7
2020-08-09 18:05:00 94.6 15.9 41.3 94.6 94.6 13.1 17.1 13.8 254.5 261.0 0.00 0.0383130 101.5
2020-08-09 18:10:00 94.5 16.0 41.4 94.5 94.5 12.1 16.2 11.9 261.1 259.1 0.00 0.0371231 101.3
2020-08-09 18:15:00 93.5 19.5 45.7 93.5 93.5 14.2 20.3 14.4 302.3 277.3 0.00 0.0699026 101.1
2020-08-09 18:20:00 93.4 19.5 45.7 93.4 93.4 10.1 19.8 13.2 319.1 323.8 0.00 0.0972618 101.0
2020-08-09 18:25:00 93.9 18.6 44.8 93.9 93.9 7.2 15.3 9.4 289.6 303.1 0.00 0.0837567 100.8
2020-08-09 18:30:00 92.9 19.6 45.4 92.9 92.9 12.8 16.9 10.7 304.7 300.6 0.00 0.0355330 100.6
2020-08-09 18:35:00 92.5 19.7 45.2 92.5 92.5 10.1 13.9 9.1 312.5 318.3 0.00 0.0302912 100.4
2020-08-09 18:40:00 92.0 20.7 46.2 92.0 92.0 5.5 12.8 8.8 29.4 326.6 0.00 0.0463542 100.3
2020-08-09 18:45:00 91.5 21.2 46.4 91.5 91.5 5.8 12.2 8.0 338.9 338.9 0.00 0.0304589 100.1
2020-08-09 18:50:00 91.7 21.1 46.3 91.7 91.7 7.6 9.4 7.2 326.6 343.5 0.00 0.0277433 99.9
2020-08-09 18:55:00 92.0 20.6 46.0 92.0 92.0 8.3 11.2 7.1 342.5 344.2 0.00 0.0465186 99.8
2020-08-09 19:00:00 92.1 20.6 46.1 92.1 92.1 9.9 9.9 7.1 336.5 347.0 0.00 0.0420701 99.6
2020-08-09 19:05:00 91.3 21.5 46.5 91.3 91.3 5.8 11.9 7.7 4.1 350.5 0.00 0.0369545 99.4
2020-08-09 19:10:00 90.6 21.9 46.4 90.6 90.6 4.2 9.9 7.5 3.9 357.0 0.00 0.0199942 99.2
2020-08-09 19:15:00 90.1 22.0 46.2 90.1 90.1 6.0 9.0 5.3 3.7 341.4 0.00 0.0095707 99.0
2020-08-09 19:20:00 89.8 21.7 45.5 89.8 89.8 4.6 8.7 5.6 1.1 350.9 0.00 0.0095154 98.8
2020-08-09 19:25:00 89.5 21.5 45.0 89.5 89.5 4.7 8.8 5.1 340.2 352.3 0.00 0.0097594 98.6
2020-08-09 19:30:00 89.7 21.4 45.1 89.7 89.7 3.5 6.3 4.8 341.0 358.1 0.00 0.0153184 98.4
2020-08-09 19:35:00 89.8 21.5 45.3 89.8 89.8 3.0 5.6 4.2 7.6 346.6 0.00 0.0117309 98.3
2020-08-09 19:40:00 89.3 22.0 45.5 89.3 89.3 2.2 3.8 2.6 311.9 327.8 0.00 0.0024337 98.0
2020-08-09 19:45:00 88.7 22.6 45.7 88.7 88.7 0.0 2.2 1.0 254.6 296.8 0.00 0.0001804 97.9
2020-08-09 19:50:00 87.5 23.5 45.7 87.5 87.5 3.8 3.8 2.0 171.3 170.5 0.00 0.0000000 97.7
2020-08-09 19:55:00 86.5 24.2 45.7 86.5 86.5 5.1 5.3 4.5 177.2 174.4 0.00 0.0000000 97.5
2020-08-09 20:00:00 86.4 24.5 45.9 86.4 86.4 4.6 5.8 4.9 152.5 170.6 0.00 0.0000000 97.3
2020-08-09 20:05:00 85.7 25.2 46.0 85.7 85.7 4.2 4.6 3.7 148.6 156.9 0.00 0.0000000 97.1
2020-08-09 20:10:00 85.7 25.6 46.4 85.7 85.7 7.1 7.1 5.0 150.6 152.8 0.00 0.0000000 96.9
2020-08-09 20:15:00 85.8 25.6 46.6 85.8 85.8 5.1 7.2 5.5 143.0 146.6 0.00 0.0000000 96.7
2020-08-09 20:20:00 85.6 25.6 46.5 85.6 85.6 5.6 6.9 5.4 189.4 155.6 0.00 0.0000000 96.5
2020-08-09 20:25:00 85.3 25.7 46.2 85.3 85.3 10.1 10.1 6.4 132.1 148.6 0.00 0.0000000 96.4
2020-08-09 20:30:00 85.3 26.8 47.4 85.3 85.3 13.3 13.7 10.9 136.8 132.0 0.00 0.0000000 96.2
2020-08-09 20:35:00 84.8 27.8 47.9 84.8 84.8 8.5 12.2 8.4 136.7 139.9 0.00 0.0000000 96.0
2020-08-09 20:40:00 84.6 28.5 48.4 84.6 84.6 7.2 10.8 8.5 136.6 142.7 0.00 0.0000000 95.8
2020-08-09 20:45:00 84.1 29.4 48.8 84.1 84.1 7.2 10.6 7.9 142.3 146.9 0.00 0.0000000 95.6
2020-08-09 20:50:00 83.8 29.8 48.8 83.8 83.8 7.4 10.3 7.9 155.8 147.9 0.00 0.0000000 95.4
2020-08-09 20:55:00 84.1 28.5 48.0 84.1 84.1 7.4 10.6 9.0 145.9 151.2 0.00 0.0000000 95.2
2020-08-09 21:00:00 84.2 28.4 48.0 84.2 84.2 7.6 12.2 9.2 152.4 150.1 0.00 0.0000000 95.1
2020-08-09 21:05:00 84.0 28.6 48.0 84.0 84.0 9.2 11.9 9.2 158.7 139.3 0.00 0.0000000 94.9
2020-08-09 21:10:00 83.7 28.4 47.5 83.7 83.7 6.9 12.2 9.3 134.7 147.7 0.00 0.0000000 94.7
2020-08-09 21:15:00 83.6 28.1 47.2 83.6 83.6 12.1 14.2 10.8 147.4 159.1 0.00 0.0000000 94.6
2020-08-09 21:20:00 83.1 28.4 47.0 83.1 83.1 9.9 13.5 10.6 153.7 160.3 0.00 0.0000000 94.4
2020-08-09 21:25:00 83.0 29.0 47.5 83.0 83.0 13.7 14.6 11.5 159.2 162.0 0.00 0.0000000 94.2
2020-08-09 21:30:00 82.5 29.7 47.7 82.5 82.5 16.2 16.2 12.2 159.0 159.9 0.00 0.0000000 94.1
2020-08-09 21:35:00 82.4 30.1 48.0 82.4 82.4 14.4 14.6 11.9 126.2 159.6 0.00 0.0000000 93.9
2020-08-09 21:40:00 82.2 31.1 48.6 82.2 82.2 15.1 17.8 13.6 153.8 150.8 0.00 0.0000000 93.7
2020-08-09 21:45:00 81.8 32.4 49.4 81.8 81.8 11.0 19.8 14.1 173.7 158.1 0.00 0.0000000 93.6
2020-08-09 21:50:00 81.4 33.2 49.7 81.4 81.4 16.4 16.4 12.7 178.4 160.7 0.00 0.0000000 93.4
2020-08-09 21:55:00 81.5 33.6 50.1 81.5 81.5 13.9 16.2 13.3 159.7 166.8 0.00 0.0000000 93.3
2020-08-09 22:00:00 81.5 33.8 50.3 81.5 81.5 10.6 16.5 12.7 183.5 168.2 0.00 0.0000000 93.1
2020-08-09 22:05:00 81.5 33.8 50.3 81.5 81.5 16.9 19.0 14.9 180.9 165.0 0.00 0.0000000 93.0
2020-08-09 22:10:00 81.2 34.0 50.2 81.2 81.2 16.2 17.8 14.3 145.7 156.2 0.00 0.0000000 92.8
2020-08-09 22:15:00 80.8 34.4 50.2 80.8 80.8 18.1 22.6 16.5 171.5 156.8 0.00 0.0000000 92.7
2020-08-09 22:20:00 80.3 35.5 50.5 80.3 80.3 16.9 19.4 15.2 156.5 153.5 0.00 0.0000000 92.5
2020-08-09 22:25:00 79.8 36.6 50.9 79.8 79.8 15.8 16.7 13.5 186.5 160.0 0.00 0.0000000 92.4
2020-08-09 22:30:00 79.3 37.2 51.0 79.3 79.3 13.9 18.5 12.5 147.9 159.6 0.00 0.0000000 92.2
2020-08-09 22:35:00 79.2 37.7 51.2 79.2 79.2 8.7 17.2 14.0 151.5 156.1 0.00 0.0000000 92.0
2020-08-09 22:40:00 79.1 37.7 51.1 79.1 79.1 12.2 17.6 13.6 165.4 158.3 0.00 0.0000000 91.9
2020-08-09 22:45:00 79.0 37.7 51.0 79.0 79.0 16.7 18.9 15.1 148.1 159.6 0.00 0.0000000 91.8
2020-08-09 22:50:00 78.8 37.9 51.0 78.8 78.8 12.6 16.9 13.1 149.9 166.3 0.00 0.0000000 91.6
2020-08-09 22:55:00 78.8 37.8 50.9 78.8 78.8 13.3 15.6 12.7 156.1 161.7 0.00 0.0000000 91.5
2020-08-09 23:00:00 78.7 37.7 50.7 78.7 78.7 18.1 18.1 14.6 168.0 164.2 0.00 0.0000000 91.4
2020-08-09 23:05:00 78.6 37.8 50.7 78.6 78.6 12.8 17.6 14.0 178.0 170.5 0.00 0.0000000 91.3
2020-08-09 23:10:00 78.6 38.0 50.9 78.6 78.6 16.9 19.2 15.0 161.3 168.2 0.00 0.0000000 91.1
2020-08-09 23:15:00 78.4 38.5 51.0 78.4 78.4 12.6 20.6 15.1 174.2 170.7 0.00 0.0000000 91.0
2020-08-09 23:20:00 78.2 38.7 51.0 78.2 78.2 14.4 19.2 15.8 182.7 174.6 0.00 0.0000000 90.9
2020-08-09 23:25:00 77.9 38.7 50.7 77.9 77.9 14.4 18.0 14.1 153.7 169.8 0.00 0.0000000 90.8
2020-08-09 23:30:00 77.9 38.9 50.8 77.9 77.9 10.6 17.1 12.3 184.8 179.9 0.00 0.0000000 90.6
2020-08-09 23:35:00 78.1 38.1 50.5 78.1 78.1 9.9 14.7 11.8 165.1 168.8 0.00 0.0000000 90.5
2020-08-09 23:40:00 78.6 36.6 49.8 78.6 78.6 12.4 14.4 11.3 158.3 168.9 0.00 0.0000000 90.4
2020-08-09 23:45:00 79.0 35.6 49.4 79.0 79.0 13.5 15.6 11.6 184.3 170.8 0.00 0.0000000 90.2
2020-08-09 23:50:00 79.1 35.5 49.5 79.1 79.1 9.7 16.7 11.1 150.1 168.7 0.00 0.0000000 90.1
2020-08-09 23:55:00 78.7 36.4 49.8 78.7 78.7 10.1 13.7 11.0 162.0 165.8 0.00 0.0000000 90.0
2020-08-10 00:00:00 78.1 37.3 49.9 78.1 78.1 5.6 11.0 8.0 150.2 154.0 0.00 0.0000000 89.9
2020-08-10 00:05:00 77.8 37.5 49.8 77.8 77.8 7.4 11.3 8.0 159.3 151.5 0.00 0.0000000 89.8
2020-08-10 00:10:00 77.4 38.0 49.8 77.4 77.4 6.5 9.0 6.6 180.2 155.9 0.00 0.0000000 89.6
2020-08-10 00:15:00 77.0 38.6 49.9 77.0 77.0 3.1 6.7 4.0 203.8 183.7 0.00 0.0000000 89.5
2020-08-10 00:20:00 76.7 39.3 50.1 76.7 76.7 8.0 9.0 5.3 150.3 176.2 0.00 0.0000000 89.4
2020-08-10 00:25:00 76.7 39.5 50.2 76.7 76.7 7.2 7.6 6.3 202.2 163.1 0.00 0.0000000 89.3
2020-08-10 00:30:00 76.2 40.3 50.4 76.2 76.2 4.9 6.3 4.3 184.5 176.6 0.00 0.0000000 89.2
2020-08-10 00:35:00 76.3 40.4 50.5 76.3 76.3 10.3 10.3 7.3 206.2 183.9 0.00 0.0000000 89.0
2020-08-10 00:40:00 76.3 40.3 50.4 76.3 76.3 9.0 13.5 10.3 181.5 181.4 0.00 0.0000000 88.9
2020-08-10 00:45:00 76.4 40.3 50.5 76.4 76.4 7.8 14.0 9.7 184.1 185.4 0.00 0.0000000 88.8
2020-08-10 00:50:00 76.2 40.7 50.6 76.2 76.2 6.7 11.9 7.2 169.2 181.1 0.00 0.0000000 88.6
2020-08-10 00:55:00 75.9 41.4 50.8 75.9 75.9 4.7 8.8 6.5 229.6 193.9 0.00 0.0000000 88.5
2020-08-10 01:00:00 75.7 41.6 50.7 75.7 75.7 2.1 5.3 3.6 334.9 234.2 0.00 0.0000000 88.4
2020-08-10 01:05:00 75.4 41.6 50.5 75.4 75.4 4.4 5.1 3.1 206.3 242.7 0.00 0.0000000 88.3
2020-08-10 01:10:00 75.7 41.1 50.4 75.7 75.7 2.4 5.8 3.0 194.6 192.1 0.00 0.0000000 88.2
2020-08-10 01:15:00 75.8 40.6 50.2 75.8 75.8 2.6 8.5 4.3 128.2 185.8 0.00 0.0000000 88.1
2020-08-10 01:20:00 75.6 41.1 50.3 75.6 75.6 6.0 7.6 5.1 178.5 177.9 0.00 0.0000000 87.9
2020-08-10 01:25:00 75.1 41.6 50.2 75.1 75.1 3.1 6.5 4.7 152.8 168.2 0.00 0.0000000 87.8
2020-08-10 01:30:00 74.7 42.3 50.3 74.7 74.7 1.5 4.6 2.9 108.4 148.0 0.00 0.0000000 87.7
2020-08-10 01:35:00 74.5 42.2 50.0 74.5 74.5 3.5 3.5 1.8 224.5 204.7 0.00 0.0000000 87.6
2020-08-10 01:40:00 74.7 42.1 50.1 74.7 74.7 6.7 6.7 4.4 205.0 217.7 0.00 0.0000000 87.5
2020-08-10 01:45:00 75.2 41.3 50.1 75.2 75.2 4.0 7.6 5.2 184.9 184.1 0.00 0.0000000 87.4
2020-08-10 01:50:00 75.1 41.4 50.1 75.1 75.1 5.5 6.9 5.5 197.8 185.3 0.00 0.0000000 87.2
2020-08-10 01:55:00 74.8 42.1 50.3 74.8 74.8 4.7 7.2 5.1 214.9 206.1 0.00 0.0000000 87.1
2020-08-10 02:00:00 75.1 42.0 50.4 75.1 75.1 6.3 8.7 6.3 192.6 195.7 0.00 0.0000000 87.0
2020-08-10 02:05:00 75.0 42.3 50.6 75.0 75.0 5.1 7.6 5.6 179.4 187.4 0.00 0.0000000 86.9
2020-08-10 02:10:00 75.2 42.4 50.8 75.2 75.2 8.5 8.7 6.4 206.9 188.7 0.00 0.0000000 86.7
2020-08-10 02:15:00 75.5 42.4 51.0 75.5 75.5 5.8 10.8 7.5 190.2 185.5 0.00 0.0000000 86.7
2020-08-10 02:20:00 75.6 42.7 51.4 75.6 75.6 9.6 9.6 7.8 176.6 188.1 0.00 0.0000000 86.5
2020-08-10 02:25:00 75.8 43.0 51.7 75.8 75.8 8.0 11.9 9.2 204.9 189.9 0.00 0.0000000 86.5
2020-08-10 02:30:00 75.5 43.4 51.7 75.5 75.5 6.9 10.1 7.9 192.6 190.5 0.00 0.0000000 86.4
2020-08-10 02:35:00 74.9 44.0 51.5 74.9 74.9 6.3 8.3 5.4 211.5 204.6 0.00 0.0000000 86.2
2020-08-10 02:40:00 74.7 44.2 51.5 74.7 74.7 4.0 7.8 5.4 205.2 215.9 0.00 0.0000000 86.2
2020-08-10 02:45:00 74.5 44.5 51.4 74.5 74.5 4.0 5.8 3.9 185.8 182.3 0.00 0.0000000 86.1
2020-08-10 02:50:00 73.7 45.3 51.3 73.7 73.7 2.8 4.2 3.0 179.4 147.8 0.00 0.0000000 86.0
2020-08-10 02:55:00 73.7 45.6 51.4 73.7 73.7 2.2 3.7 2.5 118.3 127.5 0.00 0.0000000 85.9
2020-08-10 03:00:00 73.7 45.7 51.4 73.7 73.7 1.7 4.0 2.4 118.8 144.4 0.00 0.0000000 85.8
2020-08-10 03:05:00 73.7 45.9 51.6 73.7 73.7 1.5 3.5 1.6 131.0 151.0 0.00 0.0000000 85.7
2020-08-10 03:10:00 73.4 46.6 51.7 73.4 73.4 2.1 2.1 1.5 120.8 119.8 0.00 0.0000000 85.6
2020-08-10 03:15:00 73.3 47.0 51.9 73.3 73.3 3.3 3.8 2.8 170.8 139.8 0.00 0.0000000 85.5
2020-08-10 03:20:00 72.8 48.2 52.0 72.8 72.8 3.1 4.9 3.9 178.5 157.8 0.00 0.0000000 85.4
2020-08-10 03:25:00 72.8 48.9 52.4 72.8 72.8 3.5 6.0 4.1 175.7 165.4 0.00 0.0000000 85.3
2020-08-10 03:30:00 72.8 49.3 52.6 72.8 72.8 4.7 6.0 3.7 144.1 156.8 0.00 0.0000000 85.2
2020-08-10 03:35:00 73.0 49.3 52.9 73.0 73.0 6.2 7.1 5.1 171.1 174.5 0.00 0.0000000 85.1
2020-08-10 03:40:00 73.4 48.9 53.0 73.4 73.4 4.9 8.1 5.9 199.0 188.7 0.00 0.0000000 85.0
2020-08-10 03:45:00 73.6 49.0 53.3 73.6 73.6 7.2 8.5 6.5 198.6 192.3 0.00 0.0000000 84.9
2020-08-10 03:50:00 73.5 49.3 53.3 73.5 73.5 6.5 8.1 5.7 197.9 201.5 0.00 0.0000000 84.8
2020-08-10 03:55:00 73.1 49.9 53.3 73.1 73.1 4.9 7.1 5.1 224.5 201.7 0.00 0.0000000 84.7
2020-08-10 04:00:00 72.9 50.2 53.3 72.9 72.9 4.7 6.7 4.5 219.7 195.6 0.00 0.0000000 84.6
2020-08-10 04:05:00 72.8 50.5 53.4 72.8 72.8 4.9 7.6 5.4 170.9 192.9 0.00 0.0000000 84.6
2020-08-10 04:10:00 73.1 50.1 53.4 73.1 73.1 5.1 6.7 5.9 193.9 190.8 0.00 0.0000000 84.5
2020-08-10 04:15:00 72.7 50.7 53.4 72.7 72.7 4.6 7.1 5.0 166.9 176.9 0.00 0.0000000 84.4
2020-08-10 04:20:00 72.1 51.9 53.5 72.1 72.1 3.7 5.6 4.1 144.5 165.4 0.00 0.0000000 84.3
2020-08-10 04:25:00 71.9 52.3 53.5 71.9 71.9 2.4 4.2 2.7 168.7 159.6 0.00 0.0000000 84.2
2020-08-10 04:30:00 72.0 52.2 53.5 72.0 72.0 3.0 3.7 2.7 186.0 180.5 0.00 0.0000000 84.1
2020-08-10 04:35:00 71.9 52.4 53.5 71.9 71.9 2.6 3.5 2.6 164.2 173.8 0.00 0.0000000 84.1
2020-08-10 04:40:00 71.5 53.2 53.5 71.5 71.5 3.3 3.3 2.8 158.1 167.8 0.00 0.0000000 83.9
2020-08-10 04:45:00 70.8 54.3 53.5 70.8 70.8 1.7 4.0 3.0 131.2 149.5 0.00 0.0000000 83.9
2020-08-10 04:50:00 70.7 54.7 53.6 70.7 70.7 2.2 2.6 1.3 21.5 42.5 0.00 0.0000000 83.8
2020-08-10 04:55:00 70.7 54.6 53.5 70.7 70.7 2.8 2.8 2.1 81.1 53.0 0.00 0.0000000 83.7
2020-08-10 05:00:00 70.9 54.2 53.6 70.9 70.9 3.1 3.3 2.7 124.7 111.3 0.00 0.0000000 83.6
2020-08-10 05:05:00 70.3 54.9 53.4 70.3 70.3 2.8 3.3 2.9 209.2 140.3 0.00 0.0000000 83.5
2020-08-10 05:10:00 70.2 55.8 53.7 70.2 70.2 3.5 4.2 3.4 156.2 163.1 0.00 0.0000000 83.4
2020-08-10 05:15:00 70.3 55.3 53.5 70.3 70.3 2.4 4.6 2.7 147.3 165.5 0.00 0.0000000 83.4
2020-08-10 05:20:00 70.8 54.5 53.6 70.8 70.8 1.5 3.1 2.0 153.6 168.5 0.00 0.0000000 83.2
2020-08-10 05:25:00 71.1 53.9 53.5 71.1 71.1 3.5 3.5 2.3 164.4 173.3 0.00 0.0000000 83.2
2020-08-10 05:30:00 71.1 53.9 53.5 71.1 71.1 3.3 4.2 3.5 171.1 170.0 0.00 0.0000000 83.1
2020-08-10 05:35:00 71.0 54.1 53.5 71.0 71.0 4.7 5.8 4.2 187.2 183.2 0.00 0.0000000 83.0
2020-08-10 05:40:00 70.8 54.5 53.6 70.8 70.8 3.7 5.3 4.2 168.9 177.3 0.00 0.0000000 82.9
2020-08-10 05:45:00 70.7 54.7 53.6 70.7 70.7 4.7 4.9 4.4 176.1 172.3 0.00 0.0000000 82.8
2020-08-10 05:50:00 70.6 55.1 53.7 70.6 70.6 4.7 5.5 4.8 155.9 171.2 0.00 0.0000000 82.7
2020-08-10 05:55:00 70.3 55.6 53.7 70.3 70.3 4.0 5.5 4.4 159.9 172.8 0.00 0.0000000 82.7
2020-08-10 06:00:00 70.3 55.7 53.7 70.3 70.3 3.3 6.2 3.7 188.8 181.7 0.00 0.0000000 82.6
2020-08-10 06:05:00 70.1 55.9 53.7 70.1 70.1 3.1 5.3 4.0 171.4 180.5 0.00 0.0000000 82.5
2020-08-10 06:10:00 69.1 57.3 53.3 69.1 69.1 0.0 3.5 1.9 88.4 138.4 0.00 0.0000000 82.4
2020-08-10 06:15:00 68.7 58.5 53.6 68.7 68.7 1.9 2.8 1.2 87.8 89.4 0.00 0.0003942 82.3
2020-08-10 06:20:00 68.8 58.7 53.7 68.8 68.8 3.1 3.3 2.0 149.1 105.7 0.00 0.0032275 82.3
2020-08-10 06:25:00 69.3 57.7 53.7 69.3 69.3 0.0 3.0 0.4 121.0 124.9 0.00 0.0075160 82.1
2020-08-10 06:30:00 69.7 57.2 53.9 69.7 69.7 3.0 3.3 0.4 187.6 185.7 0.00 0.0114743 82.1
2020-08-10 06:35:00 69.8 57.1 53.9 69.8 69.8 2.6 3.7 2.9 232.3 207.0 0.00 0.0160375 82.0
2020-08-10 06:40:00 69.7 57.9 54.2 69.7 69.7 4.6 5.6 3.4 211.6 216.5 0.00 0.0203325 81.9
2020-08-10 06:45:00 70.1 57.2 54.3 70.1 70.1 2.8 6.2 4.0 193.8 199.1 0.00 0.0246336 81.8
2020-08-10 06:50:00 70.4 56.5 54.2 70.4 70.4 4.7 4.7 3.7 194.2 176.7 0.00 0.0288933 81.8
2020-08-10 06:55:00 70.6 56.3 54.2 70.6 70.6 4.2 4.4 3.4 143.7 174.1 0.00 0.0331585 81.7
2020-08-10 07:00:00 70.8 56.4 54.5 70.8 70.8 3.8 5.5 3.9 150.3 164.2 0.00 0.0374986 81.7
2020-08-10 07:05:00 70.7 56.7 54.6 70.7 70.7 4.2 5.1 4.0 183.3 163.2 0.00 0.0416249 81.7
2020-08-10 07:10:00 71.1 55.8 54.5 71.1 71.1 4.6 6.9 4.9 178.3 177.6 0.00 0.0461093 81.7
2020-08-10 07:15:00 71.7 55.1 54.7 71.7 71.7 5.5 6.2 4.7 170.7 179.3 0.00 0.0505971 81.7
2020-08-10 07:20:00 72.3 54.4 54.9 72.3 72.3 3.7 6.9 5.0 184.0 194.2 0.00 0.0552582 81.7
2020-08-10 07:25:00 72.8 53.2 54.8 72.8 72.8 5.8 5.8 4.5 189.1 193.0 0.00 0.0599106 81.7
2020-08-10 07:30:00 73.5 52.3 55.0 73.5 73.5 4.2 6.0 3.9 198.0 194.3 0.00 0.0645944 81.8
2020-08-10 07:35:00 74.1 51.3 55.0 74.1 74.1 5.3 5.3 4.2 177.3 191.0 0.00 0.0694229 81.8
2020-08-10 07:40:00 74.2 50.8 54.8 74.2 74.2 2.8 5.8 4.1 207.6 194.2 0.00 0.0743216 81.9
2020-08-10 07:45:00 74.8 50.3 55.1 74.8 74.8 2.6 4.9 3.6 180.2 199.9 0.00 0.0792309 82.0
2020-08-10 07:50:00 75.7 49.0 55.2 75.7 75.7 2.8 6.0 3.5 175.6 189.0 0.00 0.0844884 82.1
2020-08-10 07:55:00 75.9 48.0 54.8 75.9 75.9 3.0 4.2 3.1 159.8 190.2 0.00 0.0893355 82.2
2020-08-10 08:00:00 76.2 47.7 54.9 76.2 76.2 6.7 6.7 3.3 195.3 193.5 0.00 0.0946086 82.4
2020-08-10 08:05:00 76.3 47.2 54.7 76.3 76.3 4.6 6.5 4.3 218.1 189.7 0.00 0.0996257 82.5
2020-08-10 08:10:00 76.5 47.7 55.2 76.5 76.5 2.8 4.4 3.1 176.5 212.4 0.00 0.1046045 82.7
2020-08-10 08:15:00 76.9 46.8 55.0 76.9 76.9 3.0 4.2 2.9 210.0 195.7 0.00 0.1098199 82.8
2020-08-10 08:20:00 77.3 46.4 55.1 77.3 77.3 1.9 3.0 1.9 214.1 233.8 0.00 0.1148375 83.0
2020-08-10 08:25:00 77.6 46.0 55.2 77.6 77.6 2.8 5.3 3.4 210.3 191.1 0.00 0.1190452 83.1
2020-08-10 08:30:00 78.1 45.3 55.3 78.1 78.1 3.0 3.8 2.2 233.1 227.7 0.00 0.1252949 83.3
2020-08-10 08:35:00 79.1 44.1 55.3 79.1 79.1 5.3 7.8 2.2 235.7 249.9 0.00 0.1309635 83.5
2020-08-10 08:40:00 79.1 42.9 54.6 79.1 79.1 6.0 6.3 4.7 263.8 256.4 0.00 0.1353473 83.7
2020-08-10 08:45:00 79.6 42.8 55.0 79.6 79.6 5.8 5.8 3.9 244.8 249.8 0.00 0.1399149 84.0
2020-08-10 08:50:00 79.4 42.8 54.9 79.4 79.4 7.4 7.4 4.4 249.8 231.4 0.00 0.1389443 84.2
2020-08-10 08:55:00 79.5 42.5 54.7 79.5 79.5 5.6 7.1 5.4 214.4 229.3 0.00 0.1447635 84.5
2020-08-10 09:00:00 80.2 41.6 54.8 80.2 80.2 5.8 7.6 5.5 202.8 254.1 0.00 0.1578398 84.7
2020-08-10 09:05:00 80.4 41.2 54.7 80.4 80.3 5.8 8.7 5.1 228.8 227.4 0.00 0.1536228 85.0
2020-08-10 09:10:00 81.4 40.4 55.0 81.4 81.0 5.1 7.1 5.5 209.9 236.2 0.00 0.1699503 85.3
2020-08-10 09:15:00 81.5 40.1 54.9 81.5 81.0 5.8 7.8 5.6 223.0 222.1 0.00 0.1737770 85.6
2020-08-10 09:20:00 81.9 39.4 54.8 81.9 81.9 4.0 8.7 5.2 204.7 204.8 0.00 0.1786972 85.9
2020-08-10 09:25:00 82.8 38.5 55.0 82.8 82.8 4.7 7.2 4.0 229.4 222.8 0.00 0.1851130 86.3
2020-08-10 09:30:00 83.5 38.0 55.2 83.5 83.5 5.1 6.3 3.9 225.6 219.8 0.00 0.1887249 86.5
2020-08-10 09:35:00 84.1 35.6 53.9 84.1 84.1 7.1 10.6 7.0 272.0 241.1 0.00 0.1934552 86.8
2020-08-10 09:40:00 85.1 35.4 54.7 85.1 85.1 4.7 12.1 8.0 211.4 236.3 0.00 0.1981762 87.2
2020-08-10 09:45:00 85.2 33.9 53.6 85.2 85.2 8.5 11.5 7.7 235.1 234.6 0.00 0.2027756 87.5
2020-08-10 09:50:00 85.4 34.5 54.3 85.4 85.4 5.3 9.0 5.8 257.1 245.8 0.00 0.2073571 87.9
2020-08-10 09:55:00 85.5 34.1 54.0 85.5 85.5 5.5 9.9 5.7 223.6 242.7 0.00 0.2120711 88.2
2020-08-10 10:00:00 86.2 33.2 53.9 86.2 86.2 9.7 9.9 6.9 240.2 249.4 0.00 0.2165344 88.5
2020-08-10 10:05:00 86.7 31.8 53.2 86.7 86.7 6.7 11.7 7.8 202.9 233.2 0.00 0.2210067 89.0
2020-08-10 10:10:00 86.6 31.9 53.2 86.6 86.6 6.5 11.3 7.2 260.1 249.7 0.00 0.2256269 89.3
2020-08-10 10:15:00 88.1 30.3 53.1 88.1 88.1 5.5 9.0 6.6 206.3 234.8 0.00 0.2298151 89.7
2020-08-10 10:20:00 88.3 29.4 52.4 88.3 88.3 9.7 12.4 7.8 249.9 242.3 0.00 0.2344018 90.0
2020-08-10 10:25:00 88.6 29.5 52.7 88.6 88.6 6.3 10.8 8.5 275.8 261.7 0.00 0.2376682 90.4
2020-08-10 10:30:00 89.1 28.9 52.7 89.1 89.1 11.2 13.0 8.4 246.8 251.3 0.00 0.2412159 90.8
2020-08-10 10:35:00 88.9 29.0 52.5 88.9 88.9 10.1 13.0 9.9 252.6 257.4 0.00 0.2451645 91.1
2020-08-10 10:40:00 88.7 29.4 52.7 88.7 88.7 6.7 10.8 7.8 244.6 238.6 0.00 0.2487234 91.5
2020-08-10 10:45:00 89.4 27.2 51.2 89.4 89.4 5.1 13.1 9.4 220.2 230.7 0.00 0.2522574 91.9
2020-08-10 10:50:00 90.1 27.1 51.7 90.1 90.1 6.5 8.1 6.1 291.6 259.2 0.00 0.2559349 92.2
2020-08-10 10:55:00 90.1 27.5 52.1 90.1 90.1 8.0 10.5 7.8 260.0 256.0 0.00 0.2590108 92.6
2020-08-10 11:00:00 92.0 25.0 51.1 92.0 92.0 7.6 9.7 6.5 280.2 241.6 0.00 0.2619844 93.0
2020-08-10 11:05:00 91.4 25.4 51.0 91.4 91.4 6.3 11.0 8.0 182.0 230.5 0.00 0.2657590 93.3
2020-08-10 11:10:00 92.0 25.2 51.4 92.0 92.0 7.1 8.5 6.2 252.6 218.0 0.00 0.2681161 93.7
2020-08-10 11:15:00 91.9 25.3 51.4 91.9 91.9 7.6 9.4 5.7 230.1 236.4 0.00 0.2712809 94.1
2020-08-10 11:20:00 92.3 23.5 49.7 92.3 92.3 9.6 10.8 7.1 254.1 256.7 0.00 0.2743035 94.5
2020-08-10 11:25:00 92.5 22.9 49.3 92.5 92.5 9.6 11.7 7.7 270.0 254.3 0.00 0.2779093 94.8
2020-08-10 11:30:00 92.9 22.2 48.7 92.9 92.9 8.5 11.2 7.8 265.7 256.1 0.00 0.2809298 95.2
2020-08-10 11:35:00 93.7 20.9 47.8 93.7 93.7 3.3 6.9 4.9 297.1 257.2 0.00 0.2834811 95.6
2020-08-10 11:40:00 94.5 21.9 49.6 94.5 94.5 7.8 11.3 5.4 206.2 235.5 0.00 0.2848010 96.0
2020-08-10 11:45:00 94.8 20.4 48.0 94.8 94.8 7.2 9.4 5.5 224.5 250.4 0.00 0.2859579 96.3
2020-08-10 11:50:00 94.6 20.5 48.0 94.6 94.6 5.8 8.5 4.8 160.9 242.7 0.00 0.2891304 96.7
2020-08-10 11:55:00 95.7 20.9 49.4 95.7 95.7 4.9 6.2 4.3 192.8 201.0 0.00 0.2896761 97.1
2020-08-10 12:00:00 95.1 20.7 48.6 95.1 95.1 5.1 7.1 4.0 135.0 141.1 0.00 0.2723929 97.5
2020-08-10 12:05:00 96.2 19.9 48.5 96.2 96.2 4.2 5.8 3.6 265.4 296.7 0.00 0.2966952 97.8
2020-08-10 12:10:00 95.9 19.6 47.8 95.9 95.9 11.3 11.3 6.3 229.9 267.6 0.00 0.3201190 98.2
2020-08-10 12:15:00 95.8 19.1 47.1 95.8 95.8 7.2 12.6 6.4 270.1 242.1 0.00 0.3104689 98.5
2020-08-10 12:20:00 96.7 17.8 46.0 96.7 96.7 3.0 7.6 4.5 271.3 294.5 0.00 0.3275318 98.9
2020-08-10 12:25:00 98.2 17.9 47.3 98.2 98.2 3.5 4.7 2.6 195.1 219.8 0.00 0.3287860 99.3
2020-08-10 12:30:00 98.1 17.8 47.1 98.1 98.1 2.6 8.5 3.8 152.6 160.7 0.00 0.3291338 99.6
2020-08-10 12:35:00 96.8 18.6 47.2 96.8 96.8 3.7 9.9 4.5 259.3 232.8 0.00 0.3299707 100.0
2020-08-10 12:40:00 97.4 18.2 47.1 97.4 97.4 5.1 8.8 5.4 297.2 271.4 0.00 0.3059418 100.4
2020-08-10 12:45:00 98.4 17.9 47.5 98.4 98.4 7.6 7.6 4.3 218.5 284.7 0.00 0.2929634 100.8
2020-08-10 12:50:00 96.9 18.0 46.4 96.9 96.9 2.6 7.8 5.0 50.8 212.3 0.00 0.2794644 101.2
2020-08-10 12:55:00 98.5 17.9 47.6 98.5 98.5 6.5 10.5 5.5 251.5 231.6 0.00 0.2928646 101.5

Data is courtesy of the NM Climate Center. DO NOT USE IN LEGAL PROCEEDINGS.